메인 페이지
METAR-TAF:

METAR-TAF

공항 :

두바이 국제공항

두바이, 아랍에미리트

위도: 25-15-10N, 경도: 055-21-52E, 고도: 8m

현재 날씨관측

예보는 1 시간 5분 전, 11:00시(UTC)에 발표되었습니다.
서북서15kt남서풍과 풍을 오가는
온도 21°C
습도 46%
기압 1018 hPa
시정 10km 이상
고도 4000ft 상공 구름 보통

METAR: OMDB 201100Z 29015KT 220V350 9999 SCT040 21/09 Q1018 NOSIG

시각: 16:05 (12:05 UTC)

예보

예보는 1 시간 11분 전, 10:54시(UTC)에 발표되었습니다.
예보 대상 시간: 20일 12시부터 21일 18시까지 (UTC)
서북서14kt
시정 10km 이상
고도 4000ft 상공 구름 보통
전환 중
20일 22시부터 21일 00시까지 (UTC)
6kt
전환 중
21일 09시부터 21일 11시까지 (UTC)
북서10kt
전환 중
21일 15시부터 21일 17시까지 (UTC)
동북동5kt

TAF: OMDB 201054Z 2012/2118 29014KT 9999 SCT040 BECMG 2022/2100 18006KT BECMG 2109/2111 31010KT BECMG 2115/2117 07005KT

4,000개 이상의 공항 관측 자료 및 예보 (METAR 및 TAF 보고).

지도상에서 검색 가능한 기상관측소가 노란 점과 빨간 점으로 표시되어 있습니다.

기상관측소 명을 보려면 표시 위로 마우스를 이동하세요.

날씨 관측과 예보를 보려면 클릭하세요.

지도 변경 : 확대하려면 엑스 표시가 있는 녹색 버튼, 축소하려면 빼기 표시가 있는 녹색 버튼, 다음 페이지의 지도를 보려면 녹색 화살표를 클릭하세요.


METAR-TAF: